PWSweather.com
Personal Weather Stations
Station Observations
KMIEASTT1
Tawas Bay, East Tawas, MI 48730

Tawas BayEast Tawas, MI 48730

Lat: 44.28, Lon: -83.48

Elevation: 600

Station Type: Davis VantagePro

http://www.tawasbayweather.com

High Low Average
Temperature 48.3°F9.1°C 11.2°F-11.6°C 20.8°F-6.2°C
Dew Point 47.8°F8.8°C 7.7°F-13.5°C 18.9°F-7.3°C
Winds 12.0 mph 19.3 kmh Calm Calm 5.0 mph NW8.0 kmh NW
Wind Gusts 17.0 mph27.4 kmh 1.0 mph1.6 kmh 10.0 mph16.1 kmh
Humidity 98% 85% 92%
Pressure 30.36 in1028.1 mb 29.65 in1004.1 mb -
Precipitation 0.00 in0.0 mm - -
Hour Temp Dew Point Humidity Winds Wind Gusts Pressure Precip Precip Rate Daily Precip Total
12:00 AM 48.3°F9.1°C 47.8°F8.8°C 98% Calm Calm 2.0 mph3.2 kmh 29.65 in1004.1 mb 0.01 in0.3 mm 0.00 in0.0 mm 0.01 in0.3 mm
12:15 AM 46.5°F8.1°C 46.0°F7.8°C 98% Calm Calm 1.0 mph1.6 kmh 29.65 in1004.1 mb 0.01 in0.3 mm 0.00 in0.0 mm 0.01 in0.3 mm
12:30 AM 43.6°F6.4°C 43.1°F6.2°C 98% Calm Calm 6.0 mph9.7 kmh 29.66 in1004.4 mb 0.00 in0.0 mm 0.00 in0.0 mm 0.01 in0.3 mm
12:45 AM 47.0°F8.3°C 46.5°F8.1°C 98% 1.0 mph WNW1.6 kmh WNW 6.0 mph9.7 kmh 29.66 in1004.4 mb 0.00 in0.0 mm 0.00 in0.0 mm 0.01 in0.3 mm
01:00 AM 47.1°F8.4°C 46.6°F8.1°C 98% 2.0 mph W3.2 kmh W 6.0 mph9.7 kmh 29.66 in1004.4 mb 0.00 in0.0 mm 0.00 in0.0 mm 0.01 in0.3 mm
01:15 AM 45.4°F7.4°C 44.9°F7.2°C 98% 7.0 mph NNW11.3 kmh NNW 7.0 mph11.3 kmh 29.67 in1004.7 mb 0.00 in0.0 mm 0.00 in0.0 mm 0.01 in0.3 mm
01:30 AM 44.0°F6.7°C 43.5°F6.4°C 98% 3.0 mph N4.8 kmh N 5.0 mph8.0 kmh 29.68 in1005.1 mb 0.00 in0.0 mm 0.00 in0.0 mm 0.01 in0.3 mm
01:45 AM 42.3°F5.7°C 41.8°F5.4°C 98% 4.0 mph NW6.4 kmh NW 6.0 mph9.7 kmh 29.69 in1005.4 mb 0.00 in0.0 mm 0.00 in0.0 mm 0.01 in0.3 mm
02:02 AM 40.9°F4.9°C 40.4°F4.7°C 98% 8.0 mph NW12.9 kmh NW 9.0 mph14.5 kmh 29.71 in1006.1 mb 0.00 in0.0 mm 0.00 in0.0 mm 0.01 in0.3 mm
02:15 AM 39.2°F4.0°C 38.7°F3.7°C 98% 8.0 mph NNW12.9 kmh NNW 13.0 mph20.9 kmh 29.72 in1006.4 mb 0.00 in0.0 mm 0.00 in0.0 mm 0.01 in0.3 mm
02:30 AM 36.7°F2.6°C 36.2°F2.3°C 98% 6.0 mph NW9.7 kmh NW 8.0 mph12.9 kmh 29.73 in1006.8 mb 0.00 in0.0 mm 0.00 in0.0 mm 0.01 in0.3 mm
02:45 AM 35.6°F2.0°C 35.1°F1.7°C 98% 7.0 mph NNW11.3 kmh NNW 8.0 mph12.9 kmh 29.74 in1007.1 mb 0.00 in0.0 mm 0.00 in0.0 mm 0.01 in0.3 mm
03:00 AM 33.9°F1.1°C 33.4°F0.8°C 98% 8.0 mph NW12.9 kmh NW 11.0 mph17.7 kmh 29.75 in1007.5 mb 0.02 in0.5 mm 0.03 in0.8 mm 0.03 in0.8 mm
03:15 AM 33.5°F0.8°C 33.0°F0.6°C 98% 3.0 mph NW4.8 kmh NW 10.0 mph16.1 kmh 29.75 in1007.5 mb 0.04 in1.0 mm 0.08 in2.0 mm 0.05 in1.3 mm
03:30 AM 32.5°F0.3°C 32.0°F0.0°C 98% 5.0 mph NW8.0 kmh NW 13.0 mph20.9 kmh 29.75 in1007.5 mb 0.05 in1.3 mm 0.04 in1.0 mm 0.06 in1.5 mm
03:45 AM 32.0°F0.0°C 31.5°F-0.3°C 98% 4.0 mph NW6.4 kmh NW 11.0 mph17.7 kmh 29.78 in1008.5 mb 0.07 in1.8 mm 0.08 in2.0 mm 0.08 in2.0 mm
04:00 AM 31.4°F-0.3°C 30.9°F-0.6°C 98% 7.0 mph NNW11.3 kmh NNW 12.0 mph19.3 kmh 29.78 in1008.5 mb 0.08 in2.0 mm 0.01 in0.3 mm 0.09 in2.3 mm
04:15 AM 31.0°F-0.6°C 30.5°F-0.8°C 98% 8.0 mph NNW12.9 kmh NNW 11.0 mph17.7 kmh 29.79 in1008.8 mb 0.11 in2.8 mm 0.12 in3.0 mm 0.12 in3.0 mm
04:30 AM 30.4°F-0.9°C 29.9°F-1.2°C 98% 4.0 mph NW6.4 kmh NW 11.0 mph17.7 kmh 29.79 in1008.8 mb 0.08 in2.0 mm 0.00 in0.0 mm 0.12 in3.0 mm
04:45 AM 29.3°F-1.5°C 28.8°F-1.8°C 98% 4.0 mph NW6.4 kmh NW 13.0 mph20.9 kmh 29.81 in1009.5 mb 0.09 in2.3 mm 0.04 in1.0 mm 0.13 in3.3 mm
05:00 AM 28.1°F-2.2°C 27.6°F-2.4°C 98% 6.0 mph NW9.7 kmh NW 10.0 mph16.1 kmh 29.80 in1009.1 mb 0.07 in1.8 mm 0.00 in0.0 mm 0.13 in3.3 mm
05:15 AM 27.3°F-2.6°C 26.6°F-3.0°C 97% 5.0 mph NW8.0 kmh NW 10.0 mph16.1 kmh 29.81 in1009.5 mb 0.08 in2.0 mm 0.04 in1.0 mm 0.14 in3.6 mm
05:30 AM 25.7°F-3.5°C 25.0°F-3.9°C 97% 4.0 mph NW6.4 kmh NW 10.0 mph16.1 kmh 29.82 in1009.8 mb 0.04 in1.0 mm 0.00 in0.0 mm 0.14 in3.6 mm
05:45 AM 25.4°F-3.7°C 24.7°F-4.1°C 97% 6.0 mph NW9.7 kmh NW 9.0 mph14.5 kmh 29.83 in1010.2 mb 0.04 in1.0 mm 0.00 in0.0 mm 0.14 in3.6 mm
06:00 AM 24.6°F-4.1°C 23.6°F-4.7°C 96% 5.0 mph NW8.0 kmh NW 13.0 mph20.9 kmh 29.83 in1010.2 mb 0.01 in0.3 mm 0.00 in0.0 mm 0.14 in3.6 mm
06:15 AM 24.1°F-4.4°C 23.1°F-4.9°C 96% 3.0 mph NW4.8 kmh NW 9.0 mph14.5 kmh 29.83 in1010.2 mb 0.02 in0.5 mm 0.04 in1.0 mm 0.15 in3.8 mm
06:30 AM 23.9°F-4.5°C 22.9°F-5.1°C 96% 8.0 mph NNW12.9 kmh NNW 10.0 mph16.1 kmh 29.84 in1010.5 mb 0.01 in0.3 mm 0.00 in0.0 mm 0.15 in3.8 mm
06:45 AM 23.8°F-4.6°C 22.8°F-5.1°C 96% 8.0 mph N12.9 kmh N 10.0 mph16.1 kmh 29.84 in1010.5 mb 0.01 in0.3 mm 0.00 in0.0 mm 0.15 in3.8 mm
07:00 AM 23.2°F-4.9°C 22.2°F-5.4°C 96% 6.0 mph NW9.7 kmh NW 10.0 mph16.1 kmh 29.86 in1011.2 mb 0.01 in0.3 mm 0.00 in0.0 mm 0.15 in3.8 mm
07:15 AM 22.7°F-5.2°C 21.7°F-5.7°C 96% 10.0 mph NW16.1 kmh NW 10.0 mph16.1 kmh 29.88 in1011.9 mb 0.02 in0.5 mm 0.04 in1.0 mm 0.16 in4.1 mm
07:30 AM 22.4°F-5.3°C 21.2°F-6.0°C 95% 8.0 mph NW12.9 kmh NW 9.0 mph14.5 kmh 29.88 in1011.9 mb 0.01 in0.3 mm 0.00 in0.0 mm 0.16 in4.1 mm
07:45 AM 22.0°F-5.6°C 21.0°F-6.1°C 96% 4.0 mph NW6.4 kmh NW 8.0 mph12.9 kmh 29.91 in1012.9 mb 0.01 in0.3 mm 0.00 in0.0 mm 0.16 in4.1 mm
08:00 AM 20.8°F-6.2°C 19.6°F-6.9°C 95% 5.0 mph NW8.0 kmh NW 11.0 mph17.7 kmh 29.92 in1013.2 mb 0.02 in0.5 mm 0.01 in0.3 mm 0.17 in4.3 mm
08:15 AM 19.7°F-6.8°C 18.5°F-7.5°C 95% 6.0 mph NW9.7 kmh NW 13.0 mph20.9 kmh 29.93 in1013.5 mb 0.03 in0.8 mm 0.04 in1.0 mm 0.18 in4.6 mm
08:30 AM 19.3°F-7.1°C 18.1°F-7.7°C 95% 4.0 mph NW6.4 kmh NW 13.0 mph20.9 kmh 29.95 in1014.2 mb 0.02 in0.5 mm 0.00 in0.0 mm 0.18 in4.6 mm
08:45 AM 18.5°F-7.5°C 17.3°F-8.2°C 95% 3.0 mph NW4.8 kmh NW 17.0 mph27.4 kmh 29.96 in1014.6 mb 0.02 in0.5 mm 0.00 in0.0 mm 0.18 in4.6 mm
09:00 AM 18.2°F-7.7°C 16.8°F-8.4°C 94% 5.0 mph NNW8.0 kmh NNW 10.0 mph16.1 kmh 29.97 in1014.9 mb 0.01 in0.3 mm 0.00 in0.0 mm 0.18 in4.6 mm
09:15 AM 18.0°F-7.8°C 16.6°F-8.6°C 94% 4.0 mph NW6.4 kmh NW 11.0 mph17.7 kmh 29.99 in1015.6 mb 0.01 in0.3 mm 0.00 in0.0 mm 0.18 in4.6 mm
09:30 AM 17.6°F-8.0°C 16.2°F-8.8°C 94% 12.0 mph NW19.3 kmh NW 12.0 mph19.3 kmh 29.98 in1015.2 mb 0.00 in0.0 mm 0.00 in0.0 mm 0.18 in4.6 mm
09:45 AM 17.4°F-8.1°C 16.0°F-8.9°C 94% 5.0 mph NW8.0 kmh NW 8.0 mph12.9 kmh 30.00 in1015.9 mb 0.00 in0.0 mm 0.00 in0.0 mm 0.18 in4.6 mm
10:00 AM 17.3°F-8.2°C 15.9°F-8.9°C 94% 6.0 mph NW9.7 kmh NW 14.0 mph22.5 kmh 30.02 in1016.6 mb 0.00 in0.0 mm 0.00 in0.0 mm 0.18 in4.6 mm
10:15 AM 17.4°F-8.1°C 16.0°F-8.9°C 94% 6.0 mph NW9.7 kmh NW 14.0 mph22.5 kmh 30.03 in1016.9 mb 0.00 in0.0 mm 0.00 in0.0 mm 0.18 in4.6 mm
10:30 AM 17.6°F-8.0°C 16.2°F-8.8°C 94% 3.0 mph NNW4.8 kmh NNW 10.0 mph16.1 kmh 30.03 in1016.9 mb 0.00 in0.0 mm 0.00 in0.0 mm 0.18 in4.6 mm
10:45 AM 17.6°F-8.0°C 16.2°F-8.8°C 94% 7.0 mph NW11.3 kmh NW 12.0 mph19.3 kmh 30.03 in1016.9 mb 0.00 in0.0 mm 0.00 in0.0 mm 0.18 in4.6 mm
11:00 AM 17.4°F-8.1°C 16.0°F-8.9°C 94% 3.0 mph NW4.8 kmh NW 9.0 mph14.5 kmh 30.05 in1017.6 mb 0.01 in0.3 mm 0.01 in0.3 mm 0.19 in4.8 mm
11:15 AM 17.1°F-8.3°C 15.4°F-9.2°C 93% 5.0 mph N8.0 kmh N 14.0 mph22.5 kmh 30.05 in1017.6 mb 0.01 in0.3 mm 0.00 in0.0 mm 0.19 in4.8 mm
11:30 AM 16.3°F-8.7°C 14.6°F-9.7°C 93% 5.0 mph NW8.0 kmh NW 12.0 mph19.3 kmh 30.07 in1018.3 mb 0.01 in0.3 mm 0.00 in0.0 mm 0.19 in4.8 mm
11:45 AM 16.2°F-8.8°C 14.5°F-9.7°C 93% 3.0 mph N4.8 kmh N 10.0 mph16.1 kmh 30.09 in1019.0 mb 0.01 in0.3 mm 0.00 in0.0 mm 0.19 in4.8 mm
12:00 PM 16.1°F-8.8°C 14.4°F-9.8°C 93% 9.0 mph NNW14.5 kmh NNW 11.0 mph17.7 kmh 30.09 in1019.0 mb 0.00 in0.0 mm 0.00 in0.0 mm 0.19 in4.8 mm
12:15 PM 16.3°F-8.7°C 14.6°F-9.7°C 93% 3.0 mph N4.8 kmh N 9.0 mph14.5 kmh 30.09 in1019.0 mb 0.00 in0.0 mm 0.00 in0.0 mm 0.19 in4.8 mm
12:30 PM 16.2°F-8.8°C 14.3°F-9.8°C 92% 3.0 mph N4.8 kmh N 16.0 mph25.7 kmh 30.10 in1019.3 mb 0.00 in0.0 mm 0.00 in0.0 mm 0.19 in4.8 mm
12:45 PM 16.2°F-8.8°C 14.3°F-9.8°C 92% 10.0 mph NW16.1 kmh NW 16.0 mph25.7 kmh 30.10 in1019.3 mb 0.00 in0.0 mm 0.00 in0.0 mm 0.19 in4.8 mm
01:00 PM 16.1°F-8.8°C 14.2°F-9.9°C 92% 6.0 mph N9.7 kmh N 13.0 mph20.9 kmh 30.09 in1019.0 mb 0.00 in0.0 mm 0.00 in0.0 mm 0.19 in4.8 mm
01:15 PM 16.1°F-8.8°C 14.2°F-9.9°C 92% 11.0 mph N17.7 kmh N 14.0 mph22.5 kmh 30.08 in1018.6 mb 0.17 in4.3 mm 0.68 in17.3 mm 0.36 in9.1 mm
01:30 PM 15.9°F-8.9°C 14.0°F-10.0°C 92% 2.0 mph N3.2 kmh N 11.0 mph17.7 kmh 30.10 in1019.3 mb 0.17 in4.3 mm 0.00 in0.0 mm 0.36 in9.1 mm
01:45 PM 16.0°F-8.9°C 14.1°F-9.9°C 92% 3.0 mph NNW4.8 kmh NNW 9.0 mph14.5 kmh 30.10 in1019.3 mb 0.17 in4.3 mm 0.00 in0.0 mm 0.36 in9.1 mm
02:00 PM 16.0°F-8.9°C 13.8°F-10.1°C 91% 4.0 mph N6.4 kmh N 9.0 mph14.5 kmh 30.10 in1019.3 mb 0.17 in4.3 mm 0.00 in0.0 mm 0.36 in9.1 mm
02:15 PM 16.0°F-8.9°C 14.1°F-9.9°C 92% 4.0 mph NNW6.4 kmh NNW 8.0 mph12.9 kmh 30.10 in1019.3 mb 0.17 in4.3 mm 0.00 in0.0 mm 0.36 in9.1 mm
02:30 PM 15.7°F-9.1°C 13.5°F-10.3°C 91% 4.0 mph NNW6.4 kmh NNW 13.0 mph20.9 kmh 30.11 in1019.6 mb 0.00 in0.0 mm 0.00 in0.0 mm 0.36 in9.1 mm
02:45 PM 15.7°F-9.1°C 13.5°F-10.3°C 91% 8.0 mph N12.9 kmh N 14.0 mph22.5 kmh 30.12 in1020.0 mb 0.00 in0.0 mm 0.00 in0.0 mm 0.36 in9.1 mm
03:00 PM 15.7°F-9.1°C 13.5°F-10.3°C 91% 5.0 mph N8.0 kmh N 13.0 mph20.9 kmh 30.13 in1020.3 mb 0.00 in0.0 mm 0.00 in0.0 mm 0.36 in9.1 mm
03:15 PM 15.6°F-9.1°C 13.2°F-10.4°C 90% 1.0 mph N1.6 kmh N 16.0 mph25.7 kmh 30.15 in1021.0 mb 0.00 in0.0 mm 0.00 in0.0 mm 0.36 in9.1 mm
03:30 PM 15.8°F-9.0°C 13.4°F-10.3°C 90% 3.0 mph NNW4.8 kmh NNW 11.0 mph17.7 kmh 30.15 in1021.0 mb 0.00 in0.0 mm 0.00 in0.0 mm 0.36 in9.1 mm
03:45 PM 15.6°F-9.1°C 12.9°F-10.6°C 89% 3.0 mph N4.8 kmh N 12.0 mph19.3 kmh 30.15 in1021.0 mb 0.00 in0.0 mm 0.00 in0.0 mm 0.36 in9.1 mm
04:00 PM 15.3°F-9.3°C 12.7°F-10.7°C 89% 3.0 mph NNW4.8 kmh NNW 8.0 mph12.9 kmh 30.17 in1021.7 mb 0.00 in0.0 mm 0.00 in0.0 mm 0.36 in9.1 mm
04:15 PM 14.6°F-9.7°C 11.4°F-11.4°C 87% 11.0 mph NW17.7 kmh NW 12.0 mph19.3 kmh 30.20 in1022.7 mb 0.00 in0.0 mm 0.00 in0.0 mm 0.36 in9.1 mm
04:30 PM 14.3°F-9.8°C 11.2°F-11.6°C 87% 9.0 mph NW14.5 kmh NW 12.0 mph19.3 kmh 30.22 in1023.4 mb 0.00 in0.0 mm 0.00 in0.0 mm 0.36 in9.1 mm
04:45 PM 14.0°F-10.0°C 10.9°F-11.7°C 87% 3.0 mph NW4.8 kmh NW 15.0 mph24.1 kmh 30.23 in1023.7 mb 0.00 in0.0 mm 0.00 in0.0 mm 0.36 in9.1 mm
05:00 PM 13.8°F-10.1°C 10.7°F-11.8°C 87% 3.0 mph NNW4.8 kmh NNW 13.0 mph20.9 kmh 30.24 in1024.0 mb 0.00 in0.0 mm 0.00 in0.0 mm 0.36 in9.1 mm
05:15 PM 13.6°F-10.2°C 10.2°F-12.1°C 86% 6.0 mph NNW9.7 kmh NNW 11.0 mph17.7 kmh 30.24 in1024.0 mb 0.00 in0.0 mm 0.00 in0.0 mm 0.36 in9.1 mm
05:30 PM 13.4°F-10.3°C 10.3°F-12.1°C 87% 3.0 mph N4.8 kmh N 9.0 mph14.5 kmh 30.23 in1023.7 mb 0.00 in0.0 mm 0.00 in0.0 mm 0.36 in9.1 mm
05:45 PM 13.2°F-10.4°C 10.1°F-12.2°C 87% 5.0 mph NW8.0 kmh NW 9.0 mph14.5 kmh 30.24 in1024.0 mb 0.00 in0.0 mm 0.00 in0.0 mm 0.36 in9.1 mm
06:00 PM 12.8°F-10.7°C 9.4°F-12.6°C 86% 11.0 mph N17.7 kmh N 11.0 mph17.7 kmh 30.26 in1024.7 mb 0.00 in0.0 mm 0.00 in0.0 mm 0.36 in9.1 mm
06:15 PM 12.5°F-10.8°C 8.9°F-12.8°C 85% 7.0 mph NNW11.3 kmh NNW 9.0 mph14.5 kmh 30.29 in1025.7 mb 0.00 in0.0 mm 0.00 in0.0 mm 0.36 in9.1 mm
06:30 PM 12.3°F-10.9°C 8.7°F-12.9°C 85% 4.0 mph N6.4 kmh N 9.0 mph14.5 kmh 30.30 in1026.1 mb 0.00 in0.0 mm 0.00 in0.0 mm 0.36 in9.1 mm
06:45 PM 12.1°F-11.1°C 8.5°F-13.1°C 85% 3.0 mph NW4.8 kmh NW 11.0 mph17.7 kmh 30.29 in1025.7 mb 0.00 in0.0 mm 0.00 in0.0 mm 0.36 in9.1 mm
07:00 PM 11.9°F-11.2°C 8.3°F-13.2°C 85% 5.0 mph NNW8.0 kmh NNW 12.0 mph19.3 kmh 30.31 in1026.4 mb 0.00 in0.0 mm 0.00 in0.0 mm 0.36 in9.1 mm
07:15 PM 11.8°F-11.2°C 8.2°F-13.2°C 85% 4.0 mph NW6.4 kmh NW 8.0 mph12.9 kmh 30.31 in1026.4 mb 0.00 in0.0 mm 0.00 in0.0 mm 0.36 in9.1 mm
07:30 PM 11.7°F-11.3°C 8.3°F-13.2°C 86% 6.0 mph NNW9.7 kmh NNW 11.0 mph17.7 kmh 30.28 in1025.4 mb 0.00 in0.0 mm 0.00 in0.0 mm 0.36 in9.1 mm
07:45 PM 11.5°F-11.4°C 8.1°F-13.3°C 86% 5.0 mph NW8.0 kmh NW 8.0 mph12.9 kmh 30.29 in1025.7 mb 0.00 in0.0 mm 0.00 in0.0 mm 0.36 in9.1 mm
08:00 PM 11.3°F-11.5°C 7.9°F-13.4°C 86% 3.0 mph N4.8 kmh N 8.0 mph12.9 kmh 30.29 in1025.7 mb 0.00 in0.0 mm 0.00 in0.0 mm 0.36 in9.1 mm
08:15 PM 11.3°F-11.5°C 7.9°F-13.4°C 86% 1.0 mph NW1.6 kmh NW 5.0 mph8.0 kmh 30.31 in1026.4 mb 0.00 in0.0 mm 0.00 in0.0 mm 0.36 in9.1 mm
08:30 PM 11.3°F-11.5°C 8.2°F-13.2°C 87% 4.0 mph NW6.4 kmh NW 9.0 mph14.5 kmh 30.31 in1026.4 mb 0.00 in0.0 mm 0.00 in0.0 mm 0.36 in9.1 mm
08:45 PM 11.2°F-11.6°C 8.1°F-13.3°C 87% 4.0 mph N6.4 kmh N 8.0 mph12.9 kmh 30.33 in1027.1 mb 0.00 in0.0 mm 0.00 in0.0 mm 0.36 in9.1 mm
09:00 PM 11.3°F-11.5°C 8.2°F-13.2°C 87% 2.0 mph N3.2 kmh N 9.0 mph14.5 kmh 30.35 in1027.8 mb 0.00 in0.0 mm 0.00 in0.0 mm 0.36 in9.1 mm
09:15 PM 11.4°F-11.4°C 8.3°F-13.2°C 87% 5.0 mph NW8.0 kmh NW 9.0 mph14.5 kmh 30.34 in1027.4 mb 0.00 in0.0 mm 0.00 in0.0 mm 0.36 in9.1 mm
09:30 PM 11.4°F-11.4°C 8.0°F-13.3°C 86% 2.0 mph N3.2 kmh N 8.0 mph12.9 kmh 30.33 in1027.1 mb 0.00 in0.0 mm 0.00 in0.0 mm 0.36 in9.1 mm
09:45 PM 11.4°F-11.4°C 8.0°F-13.3°C 86% 2.0 mph N3.2 kmh N 10.0 mph16.1 kmh 30.32 in1026.8 mb 0.00 in0.0 mm 0.00 in0.0 mm 0.36 in9.1 mm
10:00 PM 11.4°F-11.4°C 8.0°F-13.3°C 86% 2.0 mph NE3.2 kmh NE 10.0 mph16.1 kmh 30.31 in1026.4 mb 0.00 in0.0 mm 0.00 in0.0 mm 0.36 in9.1 mm
10:15 PM 11.3°F-11.5°C 7.7°F-13.5°C 85% 5.0 mph NNW8.0 kmh NNW 7.0 mph11.3 kmh 30.31 in1026.4 mb 0.00 in0.0 mm 0.00 in0.0 mm 0.36 in9.1 mm
10:30 PM 11.4°F-11.4°C 7.8°F-13.4°C 85% 3.0 mph N4.8 kmh N 7.0 mph11.3 kmh 30.35 in1027.8 mb 0.00 in0.0 mm 0.00 in0.0 mm 0.36 in9.1 mm
10:45 PM 11.4°F-11.4°C 8.0°F-13.3°C 86% 8.0 mph NNW12.9 kmh NNW 11.0 mph17.7 kmh 30.35 in1027.8 mb 0.00 in0.0 mm 0.00 in0.0 mm 0.36 in9.1 mm
11:00 PM 11.4°F-11.4°C 8.0°F-13.3°C 86% 2.0 mph NW3.2 kmh NW 6.0 mph9.7 kmh 30.35 in1027.8 mb 0.00 in0.0 mm 0.00 in0.0 mm 0.36 in9.1 mm
11:15 PM 11.4°F-11.4°C 8.0°F-13.3°C 86% 7.0 mph NNW11.3 kmh NNW 9.0 mph14.5 kmh 30.36 in1028.1 mb 0.00 in0.0 mm 0.00 in0.0 mm 0.36 in9.1 mm
11:30 PM 11.5°F-11.4°C 8.4°F-13.1°C 87% 5.0 mph N8.0 kmh N 7.0 mph11.3 kmh 30.34 in1027.4 mb 0.00 in0.0 mm 0.00 in0.0 mm 0.36 in9.1 mm
11:45 PM 11.6°F-11.3°C 8.5°F-13.1°C 87% 5.0 mph NNW8.0 kmh NNW 9.0 mph14.5 kmh 30.35 in1027.8 mb 0.00 in0.0 mm 0.00 in0.0 mm 0.36 in9.1 mm